sensor_id;sensor_type;location;lat;lon;timestamp;P1;durP1;ratioP1;P2;durP2;ratioP2
21894;SDS011;11112;51.270;7.224;2023-04-01T00:02:22;2.80;;;0.50;;
21894;SDS011;11112;51.270;7.224;2023-04-01T00:04:50;2.60;;;0.40;;
21894;SDS011;11112;51.270;7.224;2023-04-01T00:07:17;2.25;;;0.50;;
21894;SDS011;11112;51.270;7.224;2023-04-01T00:09:45;3.30;;;0.65;;
21894;SDS011;11112;51.270;7.224;2023-04-01T00:12:13;2.63;;;0.45;;
21894;SDS011;11112;51.270;7.224;2023-04-01T00:14:40;3.72;;;0.50;;
21894;SDS011;11112;51.270;7.224;2023-04-01T00:17:07;2.17;;;0.40;;
21894;SDS011;11112;51.270;7.224;2023-04-01T00:19:34;2.92;;;0.50;;
21894;SDS011;11112;51.270;7.224;2023-04-01T00:22:01;2.28;;;0.50;;
21894;SDS011;11112;51.270;7.224;2023-04-01T00:24:28;2.08;;;0.50;;
21894;SDS011;11112;51.270;7.224;2023-04-01T00:26:56;2.58;;;0.40;;
21894;SDS011;11112;51.270;7.224;2023-04-01T00:29:23;2.55;;;0.40;;
21894;SDS011;11112;51.270;7.224;2023-04-01T00:31:54;2.00;;;0.43;;
21894;SDS011;11112;51.270;7.224;2023-04-01T00:34:22;1.85;;;0.40;;
21894;SDS011;11112;51.270;7.224;2023-04-01T00:36:50;3.83;;;0.50;;
21894;SDS011;11112;51.270;7.224;2023-04-01T00:39:19;1.75;;;0.40;;
21894;SDS011;11112;51.270;7.224;2023-04-01T00:41:47;1.90;;;0.35;;
21894;SDS011;11112;51.270;7.224;2023-04-01T00:44:16;2.38;;;0.47;;
21894;SDS011;11112;51.270;7.224;2023-04-01T00:46:47;1.50;;;0.40;;
21894;SDS011;11112;51.270;7.224;2023-04-01T00:49:15;1.63;;;0.30;;
21894;SDS011;11112;51.270;7.224;2023-04-01T00:51:45;2.95;;;0.40;;
21894;SDS011;11112;51.270;7.224;2023-04-01T00:54:17;1.67;;;0.30;;
21894;SDS011;11112;51.270;7.224;2023-04-01T00:56:48;2.60;;;0.30;;
21894;SDS011;11112;51.270;7.224;2023-04-01T00:59:23;2.25;;;0.40;;
21894;SDS011;11112;51.270;7.224;2023-04-01T01:01:52;2.05;;;0.32;;
21894;SDS011;11112;51.270;7.224;2023-04-01T01:04:23;1.92;;;0.30;;
21894;SDS011;11112;51.270;7.224;2023-04-01T01:06:55;1.27;;;0.30;;
21894;SDS011;11112;51.270;7.224;2023-04-01T01:09:37;1.65;;;0.47;;
21894;SDS011;11112;51.270;7.224;2023-04-01T01:12:13;1.80;;;0.40;;
21894;SDS011;11112;51.270;7.224;2023-04-01T01:14:54;3.65;;;0.30;;
21894;SDS011;11112;51.270;7.224;2023-04-01T01:17:32;3.42;;;0.30;;
21894;SDS011;11112;51.270;7.224;2023-04-01T01:23:23;2.40;;;0.40;;
21894;SDS011;11112;51.270;7.224;2023-04-01T01:26:42;1.55;;;0.40;;
21894;SDS011;11112;51.270;7.224;2023-04-01T01:29:27;1.02;;;0.30;;
21894;SDS011;11112;51.270;7.224;2023-04-01T01:32:59;1.20;;;0.32;;
21894;SDS011;11112;51.270;7.224;2023-04-01T01:36:17;4.57;;;0.43;;
21894;SDS011;11112;51.270;7.224;2023-04-01T01:38:47;1.58;;;0.20;;
21894;SDS011;11112;51.270;7.224;2023-04-01T01:41:17;1.70;;;0.40;;
21894;SDS011;11112;51.270;7.224;2023-04-01T01:43:46;1.38;;;0.20;;
21894;SDS011;11112;51.270;7.224;2023-04-01T01:46:16;2.47;;;0.40;;
21894;SDS011;11112;51.270;7.224;2023-04-01T01:48:47;1.52;;;0.40;;
21894;SDS011;11112;51.270;7.224;2023-04-01T01:51:15;1.88;;;0.20;;
21894;SDS011;11112;51.270;7.224;2023-04-01T01:53:48;1.38;;;0.20;;
21894;SDS011;11112;51.270;7.224;2023-04-01T01:56:15;1.42;;;0.40;;
21894;SDS011;11112;51.270;7.224;2023-04-01T01:58:45;1.48;;;0.30;;
21894;SDS011;11112;51.270;7.224;2023-04-01T02:01:17;1.77;;;0.20;;
21894;SDS011;11112;51.270;7.224;2023-04-01T02:03:49;2.30;;;0.33;;
21894;SDS011;11112;51.270;7.224;2023-04-01T02:06:19;1.52;;;0.40;;
21894;SDS011;11112;51.270;7.224;2023-04-01T02:08:50;1.20;;;0.20;;
21894;SDS011;11112;51.270;7.224;2023-04-01T02:11:22;1.13;;;0.30;;
21894;SDS011;11112;51.270;7.224;2023-04-01T02:13:56;2.25;;;0.40;;
21894;SDS011;11112;51.270;7.224;2023-04-01T02:16:31;0.65;;;0.20;;
21894;SDS011;11112;51.270;7.224;2023-04-01T02:19:02;0.70;;;0.20;;
21894;SDS011;11112;51.270;7.224;2023-04-01T02:21:33;2.15;;;0.30;;
21894;SDS011;11112;51.270;7.224;2023-04-01T02:24:07;1.67;;;0.30;;
21894;SDS011;11112;51.270;7.224;2023-04-01T02:26:37;1.05;;;0.40;;
21894;SDS011;11112;51.270;7.224;2023-04-01T02:29:05;0.73;;;0.28;;
21894;SDS011;11112;51.270;7.224;2023-04-01T02:31:35;1.90;;;0.30;;
21894;SDS011;11112;51.270;7.224;2023-04-01T02:34:03;1.05;;;0.47;;
21894;SDS011;11112;51.270;7.224;2023-04-01T02:36:31;1.33;;;0.30;;
21894;SDS011;11112;51.270;7.224;2023-04-01T02:39:01;1.38;;;0.50;;
21894;SDS011;11112;51.270;7.224;2023-04-01T02:41:29;1.08;;;0.25;;
21894;SDS011;11112;51.270;7.224;2023-04-01T02:43:56;0.93;;;0.30;;
21894;SDS011;11112;51.270;7.224;2023-04-01T02:46:24;1.27;;;0.30;;
21894;SDS011;11112;51.270;7.224;2023-04-01T02:48:51;1.48;;;0.30;;
21894;SDS011;11112;51.270;7.224;2023-04-01T02:51:25;1.40;;;0.30;;
21894;SDS011;11112;51.270;7.224;2023-04-01T02:53:53;1.73;;;0.30;;
21894;SDS011;11112;51.270;7.224;2023-04-01T02:56:21;0.93;;;0.20;;
21894;SDS011;11112;51.270;7.224;2023-04-01T02:58:48;1.20;;;0.38;;
21894;SDS011;11112;51.270;7.224;2023-04-01T03:01:15;1.05;;;0.30;;
21894;SDS011;11112;51.270;7.224;2023-04-01T03:03:43;1.15;;;0.20;;
21894;SDS011;11112;51.270;7.224;2023-04-01T03:06:14;1.02;;;0.20;;
21894;SDS011;11112;51.270;7.224;2023-04-01T03:08:42;1.15;;;0.30;;
21894;SDS011;11112;51.270;7.224;2023-04-01T03:11:12;1.13;;;0.30;;
21894;SDS011;11112;51.270;7.224;2023-04-01T03:13:39;1.80;;;0.30;;
21894;SDS011;11112;51.270;7.224;2023-04-01T03:16:07;2.28;;;0.30;;
21894;SDS011;11112;51.270;7.224;2023-04-01T03:18:34;1.60;;;0.25;;
21894;SDS011;11112;51.270;7.224;2023-04-01T03:21:11;0.50;;;0.10;;
21894;SDS011;11112;51.270;7.224;2023-04-01T03:23:41;0.70;;;0.10;;
21894;SDS011;11112;51.270;7.224;2023-04-01T03:26:08;1.02;;;0.20;;
21894;SDS011;11112;51.270;7.224;2023-04-01T03:28:36;1.30;;;0.15;;
21894;SDS011;11112;51.270;7.224;2023-04-01T03:31:04;1.77;;;0.28;;
21894;SDS011;11112;51.270;7.224;2023-04-01T03:33:31;2.13;;;0.20;;
21894;SDS011;11112;51.270;7.224;2023-04-01T03:35:58;1.52;;;0.20;;
21894;SDS011;11112;51.270;7.224;2023-04-01T03:38:26;0.75;;;0.10;;
21894;SDS011;11112;51.270;7.224;2023-04-01T03:40:53;0.60;;;0.20;;
21894;SDS011;11112;51.270;7.224;2023-04-01T03:43:20;1.35;;;0.20;;
21894;SDS011;11112;51.270;7.224;2023-04-01T03:45:49;1.08;;;0.30;;
21894;SDS011;11112;51.270;7.224;2023-04-01T03:48:17;1.33;;;0.30;;
21894;SDS011;11112;51.270;7.224;2023-04-01T03:50:45;0.82;;;0.30;;
21894;SDS011;11112;51.270;7.224;2023-04-01T03:53:12;1.55;;;0.30;;
21894;SDS011;11112;51.270;7.224;2023-04-01T03:55:40;0.98;;;0.28;;
21894;SDS011;11112;51.270;7.224;2023-04-01T03:58:07;1.40;;;0.30;;
21894;SDS011;11112;51.270;7.224;2023-04-01T04:00:36;1.75;;;0.30;;
21894;SDS011;11112;51.270;7.224;2023-04-01T04:03:05;0.93;;;0.30;;
21894;SDS011;11112;51.270;7.224;2023-04-01T04:05:32;2.13;;;0.40;;
21894;SDS011;11112;51.270;7.224;2023-04-01T04:08:00;1.00;;;0.47;;
21894;SDS011;11112;51.270;7.224;2023-04-01T04:10:27;1.60;;;0.38;;
21894;SDS011;11112;51.270;7.224;2023-04-01T04:12:55;0.85;;;0.50;;
21894;SDS011;11112;51.270;7.224;2023-04-01T04:15:25;1.13;;;0.40;;
21894;SDS011;11112;51.270;7.224;2023-04-01T04:17:52;1.55;;;0.40;;
21894;SDS011;11112;51.270;7.224;2023-04-01T04:20:20;1.58;;;0.43;;
21894;SDS011;11112;51.270;7.224;2023-04-01T04:22:48;0.90;;;0.40;;
21894;SDS011;11112;51.270;7.224;2023-04-01T04:25:15;0.77;;;0.40;;
21894;SDS011;11112;51.270;7.224;2023-04-01T04:27:42;1.95;;;0.40;;
21894;SDS011;11112;51.270;7.224;2023-04-01T04:30:09;1.75;;;0.40;;
21894;SDS011;11112;51.270;7.224;2023-04-01T04:32:37;0.73;;;0.40;;
21894;SDS011;11112;51.270;7.224;2023-04-01T04:35:07;0.85;;;0.40;;
21894;SDS011;11112;51.270;7.224;2023-04-01T04:37:36;0.90;;;0.40;;
21894;SDS011;11112;51.270;7.224;2023-04-01T04:40:06;1.63;;;0.50;;
21894;SDS011;11112;51.270;7.224;2023-04-01T04:42:34;1.27;;;0.50;;
21894;SDS011;11112;51.270;7.224;2023-04-01T04:45:02;1.15;;;0.70;;
21894;SDS011;11112;51.270;7.224;2023-04-01T04:47:30;1.02;;;0.47;;
21894;SDS011;11112;51.270;7.224;2023-04-01T04:49:57;1.70;;;0.40;;
21894;SDS011;11112;51.270;7.224;2023-04-01T04:52:24;2.55;;;0.50;;
21894;SDS011;11112;51.270;7.224;2023-04-01T04:54:53;1.83;;;0.47;;
21894;SDS011;11112;51.270;7.224;2023-04-01T04:57:20;1.00;;;0.40;;
21894;SDS011;11112;51.270;7.224;2023-04-01T04:59:47;1.05;;;0.40;;
21894;SDS011;11112;51.270;7.224;2023-04-01T05:02:14;1.25;;;0.40;;
21894;SDS011;11112;51.270;7.224;2023-04-01T05:04:41;0.43;;;0.38;;
21894;SDS011;11112;51.270;7.224;2023-04-01T05:07:09;0.88;;;0.32;;
21894;SDS011;11112;51.270;7.224;2023-04-01T05:09:36;0.77;;;0.40;;
21894;SDS011;11112;51.270;7.224;2023-04-01T05:12:05;0.65;;;0.32;;
21894;SDS011;11112;51.270;7.224;2023-04-01T05:14:32;0.60;;;0.40;;
21894;SDS011;11112;51.270;7.224;2023-04-01T05:16:59;0.77;;;0.40;;
21894;SDS011;11112;51.270;7.224;2023-04-01T05:19:26;0.93;;;0.60;;
21894;SDS011;11112;51.270;7.224;2023-04-01T05:21:53;0.90;;;0.40;;
21894;SDS011;11112;51.270;7.224;2023-04-01T05:24:20;1.45;;;0.50;;
21894;SDS011;11112;51.270;7.224;2023-04-01T05:26:47;0.50;;;0.40;;
21894;SDS011;11112;51.270;7.224;2023-04-01T05:29:15;1.25;;;0.57;;
21894;SDS011;11112;51.270;7.224;2023-04-01T05:31:42;0.95;;;0.47;;
21894;SDS011;11112;51.270;7.224;2023-04-01T05:34:09;0.98;;;0.47;;
21894;SDS011;11112;51.270;7.224;2023-04-01T05:36:37;1.08;;;0.50;;
21894;SDS011;11112;51.270;7.224;2023-04-01T05:39:04;0.77;;;0.55;;
21894;SDS011;11112;51.270;7.224;2023-04-01T05:41:31;1.48;;;0.47;;
21894;SDS011;11112;51.270;7.224;2023-04-01T05:44:02;1.42;;;0.50;;
21894;SDS011;11112;51.270;7.224;2023-04-01T05:46:31;1.13;;;0.50;;
21894;SDS011;11112;51.270;7.224;2023-04-01T05:48:58;0.98;;;0.45;;
21894;SDS011;11112;51.270;7.224;2023-04-01T05:51:25;1.27;;;0.70;;
21894;SDS011;11112;51.270;7.224;2023-04-01T05:53:52;0.77;;;0.40;;
21894;SDS011;11112;51.270;7.224;2023-04-01T05:56:19;1.65;;;0.40;;
21894;SDS011;11112;51.270;7.224;2023-04-01T05:58:46;0.95;;;0.40;;
21894;SDS011;11112;51.270;7.224;2023-04-01T06:01:18;0.65;;;0.40;;
21894;SDS011;11112;51.270;7.224;2023-04-01T06:03:47;1.15;;;0.47;;
21894;SDS011;11112;51.270;7.224;2023-04-01T06:06:15;1.38;;;0.60;;
21894;SDS011;11112;51.270;7.224;2023-04-01T06:08:50;0.95;;;0.40;;
21894;SDS011;11112;51.270;7.224;2023-04-01T06:11:20;0.88;;;0.50;;
21894;SDS011;11112;51.270;7.224;2023-04-01T06:14:04;0.60;;;0.50;;
21894;SDS011;11112;51.270;7.224;2023-04-01T06:16:44;0.90;;;0.32;;
21894;SDS011;11112;51.270;7.224;2023-04-01T06:19:32;0.95;;;0.40;;
21894;SDS011;11112;51.270;7.224;2023-04-01T06:22:26;0.70;;;0.40;;
21894;SDS011;11112;51.270;7.224;2023-04-01T06:25:28;0.70;;;0.40;;
21894;SDS011;11112;51.270;7.224;2023-04-01T06:31:38;1.08;;;0.70;;
21894;SDS011;11112;51.270;7.224;2023-04-01T06:34:36;2.13;;;1.10;;
21894;SDS011;11112;51.270;7.224;2023-04-01T06:44:12;1.35;;;0.80;;
21894;SDS011;11112;51.270;7.224;2023-04-01T06:46:44;1.35;;;0.70;;
21894;SDS011;11112;51.270;7.224;2023-04-01T06:49:21;1.10;;;0.50;;
21894;SDS011;11112;51.270;7.224;2023-04-01T06:52:09;1.00;;;0.70;;
21894;SDS011;11112;51.270;7.224;2023-04-01T06:54:47;1.35;;;0.68;;
21894;SDS011;11112;51.270;7.224;2023-04-01T06:57:20;1.88;;;0.80;;
21894;SDS011;11112;51.270;7.224;2023-04-01T06:59:56;4.18;;;2.58;;
21894;SDS011;11112;51.270;7.224;2023-04-01T07:02:28;1.55;;;0.70;;
21894;SDS011;11112;51.270;7.224;2023-04-01T07:05:05;1.08;;;0.50;;
21894;SDS011;11112;51.270;7.224;2023-04-01T07:07:35;1.13;;;0.60;;
21894;SDS011;11112;51.270;7.224;2023-04-01T07:12:40;0.60;;;0.40;;
21894;SDS011;11112;51.270;7.224;2023-04-01T07:17:44;1.30;;;0.70;;
21894;SDS011;11112;51.270;7.224;2023-04-01T07:20:17;1.42;;;0.50;;
21894;SDS011;11112;51.270;7.224;2023-04-01T07:22:51;1.42;;;0.40;;
21894;SDS011;11112;51.270;7.224;2023-04-01T07:25:25;0.50;;;0.38;;
21894;SDS011;11112;51.270;7.224;2023-04-01T07:27:59;0.77;;;0.50;;
21894;SDS011;11112;51.270;7.224;2023-04-01T07:30:39;4.43;;;2.20;;
21894;SDS011;11112;51.270;7.224;2023-04-01T07:33:18;1.00;;;0.52;;
21894;SDS011;11112;51.270;7.224;2023-04-01T07:35:52;0.73;;;0.40;;
21894;SDS011;11112;51.270;7.224;2023-04-01T07:38:26;0.95;;;0.52;;
21894;SDS011;11112;51.270;7.224;2023-04-01T07:41:06;0.70;;;0.30;;
21894;SDS011;11112;51.270;7.224;2023-04-01T07:43:44;1.35;;;0.60;;
21894;SDS011;11112;51.270;7.224;2023-04-01T07:46:33;1.30;;;0.70;;
21894;SDS011;11112;51.270;7.224;2023-04-01T07:49:18;1.60;;;0.82;;
21894;SDS011;11112;51.270;7.224;2023-04-01T07:51:58;1.20;;;0.70;;
21894;SDS011;11112;51.270;7.224;2023-04-01T07:54:34;2.80;;;1.77;;
21894;SDS011;11112;51.270;7.224;2023-04-01T07:57:11;2.10;;;1.08;;
21894;SDS011;11112;51.270;7.224;2023-04-01T08:02:21;1.48;;;0.90;;
21894;SDS011;11112;51.270;7.224;2023-04-01T08:07:40;1.67;;;0.60;;
21894;SDS011;11112;51.270;7.224;2023-04-01T08:10:17;0.73;;;0.50;;
21894;SDS011;11112;51.270;7.224;2023-04-01T08:12:52;1.33;;;0.70;;
21894;SDS011;11112;51.270;7.224;2023-04-01T08:15:28;1.30;;;0.80;;
21894;SDS011;11112;51.270;7.224;2023-04-01T08:18:08;1.10;;;0.77;;
21894;SDS011;11112;51.270;7.224;2023-04-01T08:20:47;1.63;;;1.10;;
21894;SDS011;11112;51.270;7.224;2023-04-01T08:23:21;1.52;;;0.90;;
21894;SDS011;11112;51.270;7.224;2023-04-01T08:25:53;2.05;;;0.70;;
21894;SDS011;11112;51.270;7.224;2023-04-01T08:28:29;2.30;;;1.10;;
21894;SDS011;11112;51.270;7.224;2023-04-01T08:31:03;2.00;;;1.13;;
21894;SDS011;11112;51.270;7.224;2023-04-01T08:33:34;1.50;;;0.95;;
21894;SDS011;11112;51.270;7.224;2023-04-01T08:36:03;1.58;;;1.02;;
21894;SDS011;11112;51.270;7.224;2023-04-01T08:38:39;2.45;;;1.40;;
21894;SDS011;11112;51.270;7.224;2023-04-01T08:41:30;1.35;;;0.80;;
21894;SDS011;11112;51.270;7.224;2023-04-01T08:44:32;2.30;;;0.82;;
21894;SDS011;11112;51.270;7.224;2023-04-01T08:47:50;1.90;;;1.10;;
21894;SDS011;11112;51.270;7.224;2023-04-01T08:50:46;2.08;;;1.50;;
21894;SDS011;11112;51.270;7.224;2023-04-01T08:53:53;1.15;;;0.80;;
21894;SDS011;11112;51.270;7.224;2023-04-01T08:56:53;1.45;;;0.70;;
21894;SDS011;11112;51.270;7.224;2023-04-01T09:02:32;1.48;;;0.77;;
21894;SDS011;11112;51.270;7.224;2023-04-01T09:05:34;1.10;;;0.70;;
21894;SDS011;11112;51.270;7.224;2023-04-01T09:08:31;1.40;;;0.65;;
21894;SDS011;11112;51.270;7.224;2023-04-01T09:11:21;1.13;;;0.80;;
21894;SDS011;11112;51.270;7.224;2023-04-01T09:14:12;2.00;;;1.20;;
21894;SDS011;11112;51.270;7.224;2023-04-01T09:20:09;1.20;;;0.75;;
21894;SDS011;11112;51.270;7.224;2023-04-01T09:23:00;1.83;;;0.75;;
21894;SDS011;11112;51.270;7.224;2023-04-01T09:25:50;1.58;;;1.00;;
21894;SDS011;11112;51.270;7.224;2023-04-01T09:28:28;3.03;;;1.40;;
21894;SDS011;11112;51.270;7.224;2023-04-01T09:31:08;3.03;;;1.50;;
21894;SDS011;11112;51.270;7.224;2023-04-01T09:37:08;1.80;;;1.60;;
21894;SDS011;11112;51.270;7.224;2023-04-01T09:39:49;2.00;;;1.73;;
21894;SDS011;11112;51.270;7.224;2023-04-01T09:42:42;2.72;;;1.65;;
21894;SDS011;11112;51.270;7.224;2023-04-01T09:45:18;2.05;;;1.60;;
21894;SDS011;11112;51.270;7.224;2023-04-01T09:48:22;1.83;;;1.50;;
21894;SDS011;11112;51.270;7.224;2023-04-01T09:51:03;2.58;;;1.90;;
21894;SDS011;11112;51.270;7.224;2023-04-01T09:53:48;2.50;;;2.10;;
21894;SDS011;11112;51.270;7.224;2023-04-01T09:56:52;3.25;;;2.80;;
21894;SDS011;11112;51.270;7.224;2023-04-01T10:03:01;3.67;;;3.13;;
21894;SDS011;11112;51.270;7.224;2023-04-01T10:09:22;5.15;;;3.70;;
21894;SDS011;11112;51.270;7.224;2023-04-01T10:12:42;4.20;;;3.80;;
21894;SDS011;11112;51.270;7.224;2023-04-01T10:15:58;4.95;;;4.03;;
21894;SDS011;11112;51.270;7.224;2023-04-01T10:19:19;5.00;;;3.72;;
21894;SDS011;11112;51.270;7.224;2023-04-01T10:22:23;5.32;;;4.10;;
21894;SDS011;11112;51.270;7.224;2023-04-01T10:28:35;5.82;;;3.83;;
21894;SDS011;11112;51.270;7.224;2023-04-01T10:38:01;4.60;;;3.53;;
21894;SDS011;11112;51.270;7.224;2023-04-01T10:47:24;7.63;;;6.20;;
21894;SDS011;11112;51.270;7.224;2023-04-01T10:50:34;5.95;;;5.30;;
21894;SDS011;11112;51.270;7.224;2023-04-01T10:53:36;5.85;;;4.65;;
21894;SDS011;11112;51.270;7.224;2023-04-01T10:56:34;5.25;;;3.85;;
21894;SDS011;11112;51.270;7.224;2023-04-01T10:59:15;5.53;;;3.80;;
21894;SDS011;11112;51.270;7.224;2023-04-01T11:05:42;2.47;;;2.25;;
21894;SDS011;11112;51.270;7.224;2023-04-01T11:08:53;2.67;;;2.20;;
21894;SDS011;11112;51.270;7.224;2023-04-01T11:12:26;3.13;;;2.10;;
21894;SDS011;11112;51.270;7.224;2023-04-01T11:15:39;2.60;;;1.98;;
21894;SDS011;11112;51.270;7.224;2023-04-01T11:18:41;1.80;;;1.50;;
21894;SDS011;11112;51.270;7.224;2023-04-01T11:24:50;3.13;;;2.30;;
21894;SDS011;11112;51.270;7.224;2023-04-01T11:27:53;2.10;;;1.70;;
21894;SDS011;11112;51.270;7.224;2023-04-01T11:33:36;2.13;;;1.60;;
21894;SDS011;11112;51.270;7.224;2023-04-01T11:36:20;2.40;;;1.20;;
21894;SDS011;11112;51.270;7.224;2023-04-01T11:39:19;5.38;;;2.20;;
21894;SDS011;11112;51.270;7.224;2023-04-01T11:41:58;2.83;;;1.48;;
21894;SDS011;11112;51.270;7.224;2023-04-01T11:44:38;1.95;;;1.35;;
21894;SDS011;11112;51.270;7.224;2023-04-01T11:50:44;6.07;;;3.65;;
21894;SDS011;11112;51.270;7.224;2023-04-01T11:53:31;3.55;;;2.55;;
21894;SDS011;11112;51.270;7.224;2023-04-01T11:56:13;2.45;;;1.98;;
21894;SDS011;11112;51.270;7.224;2023-04-01T11:58:57;2.75;;;2.05;;
21894;SDS011;11112;51.270;7.224;2023-04-01T12:01:51;2.75;;;2.08;;
21894;SDS011;11112;51.270;7.224;2023-04-01T12:04:43;2.50;;;1.73;;
21894;SDS011;11112;51.270;7.224;2023-04-01T12:07:24;2.67;;;2.10;;
21894;SDS011;11112;51.270;7.224;2023-04-01T12:10:12;5.10;;;3.28;;
21894;SDS011;11112;51.270;7.224;2023-04-01T12:12:46;4.90;;;2.95;;
21894;SDS011;11112;51.270;7.224;2023-04-01T12:15:23;2.65;;;2.20;;
21894;SDS011;11112;51.270;7.224;2023-04-01T12:18:00;3.45;;;1.80;;
21894;SDS011;11112;51.270;7.224;2023-04-01T12:20:43;2.40;;;2.00;;
21894;SDS011;11112;51.270;7.224;2023-04-01T12:23:39;4.30;;;2.08;;
21894;SDS011;11112;51.270;7.224;2023-04-01T12:26:39;2.30;;;2.10;;
21894;SDS011;11112;51.270;7.224;2023-04-01T12:29:29;11.10;;;2.30;;
21894;SDS011;11112;51.270;7.224;2023-04-01T12:32:16;6.85;;;2.42;;
21894;SDS011;11112;51.270;7.224;2023-04-01T12:34:58;4.22;;;1.98;;
21894;SDS011;11112;51.270;7.224;2023-04-01T12:37:45;3.97;;;2.40;;
21894;SDS011;11112;51.270;7.224;2023-04-01T12:40:39;3.47;;;2.70;;
21894;SDS011;11112;51.270;7.224;2023-04-01T12:43:23;3.50;;;3.05;;
21894;SDS011;11112;51.270;7.224;2023-04-01T12:46:23;3.35;;;3.05;;
21894;SDS011;11112;51.270;7.224;2023-04-01T12:49:01;3.78;;;3.05;;
21894;SDS011;11112;51.270;7.224;2023-04-01T12:52:01;4.55;;;3.70;;
21894;SDS011;11112;51.270;7.224;2023-04-01T13:01:14;5.43;;;4.60;;
21894;SDS011;11112;51.270;7.224;2023-04-01T13:04:29;5.75;;;4.78;;
21894;SDS011;11112;51.270;7.224;2023-04-01T13:07:17;9.43;;;5.63;;
21894;SDS011;11112;51.270;7.224;2023-04-01T13:09:59;6.78;;;5.55;;
21894;SDS011;11112;51.270;7.224;2023-04-01T13:12:40;7.40;;;6.43;;
21894;SDS011;11112;51.270;7.224;2023-04-01T13:15:26;5.72;;;5.10;;
21894;SDS011;11112;51.270;7.224;2023-04-01T13:18:04;7.95;;;5.72;;
21894;SDS011;11112;51.270;7.224;2023-04-01T13:20:44;7.20;;;6.28;;
21894;SDS011;11112;51.270;7.224;2023-04-01T13:23:28;11.30;;;8.73;;
21894;SDS011;11112;51.270;7.224;2023-04-01T13:26:06;8.63;;;6.82;;
21894;SDS011;11112;51.270;7.224;2023-04-01T13:28:40;7.05;;;5.75;;
21894;SDS011;11112;51.270;7.224;2023-04-01T13:31:19;6.88;;;5.80;;
21894;SDS011;11112;51.270;7.224;2023-04-01T13:34:23;6.50;;;5.80;;
21894;SDS011;11112;51.270;7.224;2023-04-01T13:37:04;7.47;;;6.45;;
21894;SDS011;11112;51.270;7.224;2023-04-01T13:39:57;7.25;;;6.13;;
21894;SDS011;11112;51.270;7.224;2023-04-01T13:42:40;10.27;;;6.80;;
21894;SDS011;11112;51.270;7.224;2023-04-01T13:45:15;7.63;;;5.78;;
21894;SDS011;11112;51.270;7.224;2023-04-01T13:51:02;7.57;;;6.28;;
21894;SDS011;11112;51.270;7.224;2023-04-01T13:54:30;7.18;;;5.20;;
21894;SDS011;11112;51.270;7.224;2023-04-01T13:57:21;6.22;;;4.80;;
21894;SDS011;11112;51.270;7.224;2023-04-01T14:00:16;7.78;;;5.30;;
21894;SDS011;11112;51.270;7.224;2023-04-01T14:03:00;6.88;;;4.80;;
21894;SDS011;11112;51.270;7.224;2023-04-01T14:05:55;6.68;;;4.75;;
21894;SDS011;11112;51.270;7.224;2023-04-01T14:11:39;7.05;;;5.03;;
21894;SDS011;11112;51.270;7.224;2023-04-01T14:14:21;8.07;;;5.45;;
21894;SDS011;11112;51.270;7.224;2023-04-01T14:17:17;6.55;;;5.00;;
21894;SDS011;11112;51.270;7.224;2023-04-01T14:20:20;14.80;;;8.43;;
21894;SDS011;11112;51.270;7.224;2023-04-01T14:22:59;8.13;;;5.75;;
21894;SDS011;11112;51.270;7.224;2023-04-01T14:28:52;5.15;;;4.50;;
21894;SDS011;11112;51.270;7.224;2023-04-01T14:34:25;5.88;;;4.97;;
21894;SDS011;11112;51.270;7.224;2023-04-01T14:37:31;6.18;;;4.72;;
21894;SDS011;11112;51.270;7.224;2023-04-01T14:40:44;5.47;;;4.43;;
21894;SDS011;11112;51.270;7.224;2023-04-01T14:43:28;4.78;;;4.18;;
21894;SDS011;11112;51.270;7.224;2023-04-01T14:49:50;5.82;;;4.85;;
21894;SDS011;11112;51.270;7.224;2023-04-01T14:52:25;5.30;;;4.10;;
21894;SDS011;11112;51.270;7.224;2023-04-01T14:54:58;5.28;;;4.68;;
21894;SDS011;11112;51.270;7.224;2023-04-01T14:57:27;5.20;;;4.65;;
21894;SDS011;11112;51.270;7.224;2023-04-01T14:59:59;5.75;;;5.10;;
21894;SDS011;11112;51.270;7.224;2023-04-01T15:02:49;5.50;;;4.90;;
21894;SDS011;11112;51.270;7.224;2023-04-01T15:05:39;6.25;;;4.78;;
21894;SDS011;11112;51.270;7.224;2023-04-01T15:08:16;4.43;;;4.03;;
21894;SDS011;11112;51.270;7.224;2023-04-01T15:17:06;7.40;;;4.82;;
21894;SDS011;11112;51.270;7.224;2023-04-01T15:19:58;5.80;;;4.75;;
21894;SDS011;11112;51.270;7.224;2023-04-01T15:22:59;4.40;;;3.70;;
21894;SDS011;11112;51.270;7.224;2023-04-01T15:25:43;5.18;;;3.78;;
21894;SDS011;11112;51.270;7.224;2023-04-01T15:28:30;4.30;;;3.90;;
21894;SDS011;11112;51.270;7.224;2023-04-01T15:31:05;4.35;;;3.88;;
21894;SDS011;11112;51.270;7.224;2023-04-01T15:36:44;5.65;;;3.90;;
21894;SDS011;11112;51.270;7.224;2023-04-01T15:39:22;4.38;;;3.65;;
21894;SDS011;11112;51.270;7.224;2023-04-01T15:42:04;5.28;;;4.32;;
21894;SDS011;11112;51.270;7.224;2023-04-01T15:44:53;4.68;;;3.78;;
21894;SDS011;11112;51.270;7.224;2023-04-01T15:47:36;5.05;;;4.40;;
21894;SDS011;11112;51.270;7.224;2023-04-01T15:50:26;5.82;;;4.80;;
21894;SDS011;11112;51.270;7.224;2023-04-01T15:53:18;5.88;;;4.85;;
21894;SDS011;11112;51.270;7.224;2023-04-01T15:56:21;5.85;;;4.30;;
21894;SDS011;11112;51.270;7.224;2023-04-01T15:59:01;5.30;;;4.32;;
21894;SDS011;11112;51.270;7.224;2023-04-01T16:01:46;5.25;;;4.40;;
21894;SDS011;11112;51.270;7.224;2023-04-01T16:04:25;4.80;;;4.20;;
21894;SDS011;11112;51.270;7.224;2023-04-01T16:10:29;4.72;;;3.63;;
21894;SDS011;11112;51.270;7.224;2023-04-01T16:13:14;5.30;;;3.78;;
21894;SDS011;11112;51.270;7.224;2023-04-01T16:15:53;4.15;;;3.60;;
21894;SDS011;11112;51.270;7.224;2023-04-01T16:18:36;5.30;;;3.10;;
21894;SDS011;11112;51.270;7.224;2023-04-01T16:21:23;5.07;;;3.90;;
21894;SDS011;11112;51.270;7.224;2023-04-01T16:24:05;5.07;;;3.90;;
21894;SDS011;11112;51.270;7.224;2023-04-01T16:26:44;6.15;;;3.47;;
21894;SDS011;11112;51.270;7.224;2023-04-01T16:29:20;4.85;;;3.60;;
21894;SDS011;11112;51.270;7.224;2023-04-01T16:32:00;3.80;;;2.97;;
21894;SDS011;11112;51.270;7.224;2023-04-01T16:34:54;3.45;;;3.00;;
21894;SDS011;11112;51.270;7.224;2023-04-01T16:37:38;3.40;;;2.80;;
21894;SDS011;11112;51.270;7.224;2023-04-01T16:40:13;6.25;;;3.30;;
21894;SDS011;11112;51.270;7.224;2023-04-01T16:42:51;3.45;;;3.10;;
21894;SDS011;11112;51.270;7.224;2023-04-01T16:45:25;4.68;;;3.42;;
21894;SDS011;11112;51.270;7.224;2023-04-01T16:48:00;3.72;;;3.30;;
21894;SDS011;11112;51.270;7.224;2023-04-01T16:50:48;4.07;;;3.30;;
21894;SDS011;11112;51.270;7.224;2023-04-01T16:53:25;3.72;;;3.33;;
21894;SDS011;11112;51.270;7.224;2023-04-01T16:56:08;4.55;;;4.07;;
21894;SDS011;11112;51.270;7.224;2023-04-01T16:58:43;7.72;;;5.10;;
21894;SDS011;11112;51.270;7.224;2023-04-01T17:01:27;8.18;;;5.30;;
21894;SDS011;11112;51.270;7.224;2023-04-01T17:04:00;8.30;;;5.50;;
21894;SDS011;11112;51.270;7.224;2023-04-01T17:06:39;7.65;;;5.50;;
21894;SDS011;11112;51.270;7.224;2023-04-01T17:09:29;9.30;;;5.97;;
21894;SDS011;11112;51.270;7.224;2023-04-01T17:12:12;7.43;;;5.57;;
21894;SDS011;11112;51.270;7.224;2023-04-01T17:14:49;7.78;;;6.50;;
21894;SDS011;11112;51.270;7.224;2023-04-01T17:17:27;6.35;;;5.10;;
21894;SDS011;11112;51.270;7.224;2023-04-01T17:20:06;5.85;;;4.57;;
21894;SDS011;11112;51.270;7.224;2023-04-01T17:23:00;5.32;;;4.10;;
21894;SDS011;11112;51.270;7.224;2023-04-01T17:25:40;4.78;;;4.22;;
21894;SDS011;11112;51.270;7.224;2023-04-01T17:28:21;4.90;;;4.28;;
21894;SDS011;11112;51.270;7.224;2023-04-01T17:31:02;5.57;;;4.43;;
21894;SDS011;11112;51.270;7.224;2023-04-01T17:36:45;5.53;;;4.90;;
21894;SDS011;11112;51.270;7.224;2023-04-01T17:39:37;6.53;;;4.65;;
21894;SDS011;11112;51.270;7.224;2023-04-01T17:42:16;6.18;;;5.20;;
21894;SDS011;11112;51.270;7.224;2023-04-01T17:44:53;6.05;;;4.65;;
21894;SDS011;11112;51.270;7.224;2023-04-01T17:47:29;5.53;;;4.45;;
21894;SDS011;11112;51.270;7.224;2023-04-01T17:50:20;6.70;;;5.60;;